Latest Weather Observations for The Monument

IDQ60801

Issued at 6:42 pm EST Thursday 3 September 2026 (issued every 10 minutes, with the page automatically refreshed every 10 minutes)

About weather observations | Map of weather stations | Latest weather observations for QLD | Other Formats
Station Details ID: 037034 Name: THE MONUMENT AIRPORT Lat: -21.81 Lon: 139.93 Height: 288.4 m
Data from the previous 72 hours. | See also: Recent months at The Monument
Date/Time
EST
Temp
°C
App
Temp
°C
Dew
Point
°C
Rel
Hum
%
Delta-T
°C
Wind Press
QNH
hPa
Press
MSL
hPa
Rain since
9am
mm
Dir  Spd
km/h
Gust
km/h
Spd
kts
Gust
kts
03/06:30pm 28.5 - - - - ENE 13 15 7 8 1017.7 1016.4 0.0
03/06:00pm 30.7 - - - - E 19 26 10 14 1017.5 1016.2 0.0
03/05:30pm 32.0 - - - - E 17 24 9 13 1017.3 1016.0 0.0
03/05:00pm 32.7 - - - - ESE 13 24 7 13 1017.2 1015.9 0.0
03/04:30pm 33.2 - - - - E 13 30 7 16 1017.1 1015.8 0.0
03/04:00pm 33.5 - - - - ENE 17 30 9 16 1017.4 1016.1 0.0
03/03:30pm 33.2 - - - - E 15 28 8 15 1017.6 1016.3 0.0
03/03:00pm 33.4 - - - - SE 9 22 5 12 1017.9 1016.7 0.0
03/02:30pm 33.5 - - - - ENE 20 35 11 19 1018.3 1017.1 0.0
03/02:00pm 33.5 - - - - NNE 17 26 9 14 1018.8 1017.6 0.0
03/01:30pm 34.2 - - - - E 17 30 9 16 1019.2 1018.0 0.0
03/01:00pm 34.4 - - - - N 13 20 7 11 1019.6 1018.4 0.0
03/12:30pm 33.0 - - - - ESE 17 26 9 14 1020.2 1019.0 0.0
03/12:00pm 32.6 - - - - NNE 9 17 5 9 1020.7 1019.4 0.0
03/11:30am 32.4 - - - - NNE 13 32 7 17 1021.2 1020.0 0.0
03/11:00am 32.4 - - - - NNE 19 28 10 15 1021.5 1020.3 0.0
03/10:30am 31.5 - - - - NNE 19 26 10 14 1021.7 1020.5 0.0
03/10:00am 30.6 - - - - NE 22 28 12 15 1021.9 1020.7 0.0
03/09:30am 28.7 - - - - NE 22 28 12 15 1021.9 1020.7 0.0
03/09:00am 27.0 - - - - NE 19 26 10 14 1021.7 1020.5 0.0
03/08:30am 24.1 - - - - NE 15 24 8 13 1021.6 1020.4 0.0
03/08:00am 19.9 - - - - NNE 7 11 4 6 1021.4 1020.2 0.0
03/07:30am 16.2 - - - - NNE 7 9 4 5 1021.1 1019.9 0.0
03/07:00am 13.6 - - - - ENE 7 9 4 5 1020.7 1019.4 0.0
03/06:30am 14.0 - - - - ENE 7 20 4 11 1020.4 1019.1 0.0
03/06:00am 13.0 - - - - CALM 0 0 0 0 1019.7 1018.5 0.0
03/05:30am 13.8 - - - - CALM 0 0 0 0 1019.3 1018.1 0.0
03/05:00am 13.9 - - - - SSE 4 7 2 4 1019.1 1017.9 0.0
03/04:30am 14.6 - - - - SSE 7 9 4 5 1019.0 1017.8 0.0
03/04:00am 14.1 - - - - NE 6 17 3 9 1019.0 1017.8 0.0
03/03:30am 15.1 - - - - NNW 7 9 4 5 1018.9 1017.7 0.0
03/03:00am 15.1 - - - - WNW 7 9 4 5 1018.9 1017.7 0.0
03/02:30am 15.7 - - - - WNW 6 7 3 4 1018.9 1017.7 0.0
03/02:00am 17.0 - - - - WNW 7 9 4 5 1019.0 1017.8 0.0
03/01:30am 17.1 - - - - N 9 9 5 5 1019.0 1017.8 0.0
03/01:00am 17.5 - - - - N 9 11 5 6 1019.2 1018.0 0.0
03/12:30am 17.8 - - - - NNE 11 13 6 7 1019.3 1018.1 0.0
03/12:00am 17.2 - - - - NNE 11 11 6 6 1019.4 1018.2 0.0
 
Date/Time
EST
Temp
°C
App
Temp
°C
Dew
Point
°C
Rel
Hum
%
Delta-T
°C
Wind Press
QNH
hPa
Press
MSL
hPa
Rain since
9am
mm
Dir  Spd
km/h
Gust
km/h
Spd
kts
Gust
kts
02/11:30pm 17.7 - - - - N 9 11 5 6 1019.4 1018.2 0.0
02/11:00pm 19.7 - - - - N 7 9 4 5 1019.6 1018.4 0.0
02/10:30pm 18.5 - - - - NNE 9 11 5 6 1019.6 1018.4 0.0
02/10:00pm 19.2 - - - - NNE 7 11 4 6 1019.7 1018.5 0.0
02/09:30pm 20.4 - - - - NNE 7 11 4 6 1019.5 1018.3 0.0
02/09:00pm 20.9 - - - - NE 7 9 4 5 1019.2 1018.0 0.0
02/08:30pm 22.2 - - - - ENE 7 9 4 5 1018.9 1017.7 0.0
02/08:00pm 22.7 - - - - E 7 9 4 5 1018.5 1017.3 0.0
02/07:30pm 24.5 - - - - ESE 11 13 6 7 1018.2 1017.0 0.0
02/07:00pm 25.6 - - - - ESE 11 13 6 7 1017.9 1016.7 0.0
02/06:30pm 27.7 - - - - SE 11 15 6 8 1017.6 1016.3 0.0
02/06:00pm 30.2 - - - - SE 11 13 6 7 1017.4 1016.1 0.0
02/05:30pm 31.3 - - - - SE 13 20 7 11 1017.2 1015.9 0.0
02/05:00pm 32.1 - - - - SSE 9 19 5 10 1017.1 1015.8 0.0
02/04:30pm 32.3 - - - - SSW 9 17 5 9 1017.1 1015.8 0.0
02/04:00pm 32.5 - - - - S 7 13 4 7 1017.2 1015.9 0.0
02/03:30pm 32.3 - - - - N 6 15 3 8 1017.3 1016.0 0.0
02/03:00pm 31.9 - - - - SE 11 19 6 10 1017.7 1016.4 0.0
02/02:30pm 32.2 - - - - E 11 17 6 9 1018.1 1016.9 0.0
02/02:00pm 31.6 - - - - WSW 7 13 4 7 1018.6 1017.4 0.0
02/01:30pm 31.7 - - - - NNE 13 17 7 9 1019.2 1018.0 0.0
02/01:00pm 30.3 - - - - N 11 24 6 13 1019.8 1018.6 0.0
02/12:30pm 30.4 - - - - ENE 7 17 4 9 1020.6 1019.3 0.0
02/12:00pm 31.4 - - - - N 13 24 7 13 1021.4 1020.2 0.0
02/11:30am 30.1 - - - - NE 11 28 6 15 1021.9 1020.7 0.0
02/11:00am 29.9 - - - - NNE 15 22 8 12 1022.4 1021.2 0.0
02/10:30am 29.5 - - - - NNE 19 30 10 16 1022.7 1021.5 0.0
02/10:00am 28.3 - - - - NNE 17 30 9 16 1022.9 1021.7 0.0
02/09:30am 27.2 - - - - NE 20 28 11 15 1022.9 1021.7 0.0
02/09:00am 25.5 - - - - NE 19 28 10 15 1022.9 1021.7 0.0
02/08:30am 23.0 - - - - NNE 19 24 10 13 1022.7 1021.5 0.0
02/08:00am 20.5 - - - - NNE 9 15 5 8 1022.4 1021.2 0.0
02/07:30am 16.7 - - - - NNE 9 11 5 6 1022.0 1020.8 0.0
02/07:00am 15.2 - - - - NNE 13 15 7 8 1021.7 1020.5 0.0
02/06:30am 15.8 - - - - NNE 13 17 7 9 1021.3 1020.1 0.0
02/06:00am 15.8 - - - - NNE 15 19 8 10 1021.0 1019.8 0.0
02/05:30am 13.2 - - - - NNE 9 13 5 7 1020.8 1019.5 0.0
02/05:00am 14.1 - - - - NE 6 7 3 4 1020.7 1019.4 0.0
02/04:30am 15.0 - - - - NE 7 11 4 6 1020.6 1019.3 0.0
02/04:00am 14.6 - - - - NE 6 11 3 6 1020.7 1019.4 0.0
02/03:30am 14.8 - - - - NNE 6 7 3 4 1020.6 1019.3 0.0
02/03:00am 15.1 - - - - NNE 7 9 4 5 1020.6 1019.3 0.0
02/02:30am 15.6 - - - - NNE 7 11 4 6 1020.7 1019.4 0.0
02/02:00am 15.8 - - - - NE 7 11 4 6 1020.9 1019.7 0.0
02/01:30am 16.2 - - - - NNE 7 9 4 5 1020.9 1019.7 0.0
02/01:00am 16.5 - - - - NNE 6 9 3 5 1021.0 1019.8 0.0
02/12:30am 17.2 - - - - NE 7 9 4 5 1021.1 1019.9 0.0
02/12:00am 16.9 - - - - NE 7 9 4 5 1021.2 1020.0 0.0
 
Date/Time
EST
Temp
°C
App
Temp
°C
Dew
Point
°C
Rel
Hum
%
Delta-T
°C
Wind Press
QNH
hPa
Press
MSL
hPa
Rain since
9am
mm
Dir  Spd
km/h
Gust
km/h
Spd
kts
Gust
kts
01/11:30pm 17.4 - - - - NNE 9 11 5 6 1021.2 1020.0 0.0
01/11:00pm 17.5 - - - - NNE 7 9 4 5 1021.2 1020.0 0.0
01/10:30pm 18.2 - - - - NNE 6 7 3 4 1021.3 1020.1 0.0
01/10:00pm 19.2 - - - - NNE 4 6 2 3 1021.4 1020.2 0.0
01/09:30pm 19.1 - - - - NNE 6 7 3 4 1021.3 1020.1 0.0
01/09:00pm 19.6 - - - - NNE 6 7 3 4 1021.1 1019.9 0.0
01/08:30pm 20.5 - - - - NNE 7 9 4 5 1020.9 1019.7 0.0
01/08:00pm 21.1 - - - - NE 7 9 4 5 1020.7 1019.4 0.0
01/07:30pm 22.4 - - - - NE 7 9 4 5 1020.4 1019.1 0.0
01/07:00pm 24.2 - - - - ENE 9 11 5 6 1020.0 1018.8 0.0
01/06:30pm 26.7 - - - - NE 7 9 4 5 1019.7 1018.5 0.0
01/06:00pm 29.1 - - - - NNE 9 13 5 7 1019.6 1018.4 0.0
01/05:30pm 29.6 - - - - N 7 15 4 8 1019.6 1018.4 0.0
01/05:00pm 30.0 - - - - ENE 6 15 3 8 1019.4 1018.2 0.0
01/04:30pm 30.7 - - - - NE 7 15 4 8 1019.5 1018.3 0.0
01/04:00pm 30.3 - - - - SW 7 11 4 6 1019.6 1018.4 0.0
01/03:30pm 29.6 - - - - NNW 9 13 5 7 1019.8 1018.6 0.0
01/03:00pm 29.9 - - - - NNW 17 28 9 15 1020.1 1018.9 0.0
01/02:30pm 31.2 - - - - NNE 13 24 7 13 1020.7 1019.4 0.0
01/02:00pm 30.1 - - - - NNE 13 24 7 13 1021.2 1020.0 0.0
01/01:30pm 30.0 - - - - NNE 17 24 9 13 1021.7 1020.5 0.0
01/01:00pm 29.8 - - - - NNE 17 30 9 16 1022.3 1021.1 0.0
01/12:30pm 29.2 - - - - N 17 30 9 16 1022.8 1021.6 0.0
01/12:00pm 28.4 22.7 -12.6 6 15.6 NNE 13 24 7 13 1023.4 1022.2 0.0
01/11:30am 28.8 23.7 0.5 16 13.7 NE 17 28 9 15 1024.0 1022.8 0.0
01/11:00am 28.8 23.8 3.6 20 12.9 NNE 19 32 10 17 - - 0.0
01/10:30am 27.8 23.3 6.0 25 11.5 NNE 19 28 10 15 - - 0.0
01/10:00am 26.2 22.0 7.3 30 10.1 NNE 19 28 10 15 - - 0.0
01/09:30am 24.9 20.8 6.1 30 9.8 NE 17 26 9 14 - - 0.0
01/09:00am 23.2 18.9 5.2 31 9.1 NE 17 26 9 14 - - 0.0
01/08:30am 21.5 17.4 4.1 32 8.6 ENE 15 20 8 11 - - 0.0
01/08:00am 18.4 15.9 4.6 40 6.7 E 7 9 4 5 - - 0.0
01/07:30am 13.9 11.4 3.7 50 4.7 E 6 7 3 4 - - 0.0
01/07:00am 12.0 8.7 -0.2 43 5.1 NE 7 9 4 5 - - 0.0
01/06:30am 11.6 7.2 -13.3 16 7.6 NNE 6 7 3 4 - - 0.0
01/06:00am 12.0 7.0 -21.2 8 8.6 N 7 9 4 5 - - 0.0
01/05:30am 12.2 7.2 -24.3 6 8.9 N 7 9 4 5 - - 0.0
01/05:00am 12.8 7.8 -23.8 6 9.1 N 7 7 4 4 - - 0.0
01/04:30am 13.2 8.1 -25.6 5 9.4 N 7 9 4 5 - - 0.0
01/04:11am 12.9 7.9 -23.8 6 9.1 N 7 9 4 5 1022.1 1021.5 0.0
01/04:00am 13.2 - - - - NE 6 7 3 4 1022.1 1021.5 0.0
01/03:30am 12.7 - - - - CALM 0 0 0 0 1022.4 1021.8 0.0
01/03:00am 12.7 - - - - CALM 0 0 0 0 1022.5 1021.9 0.0
01/02:30am 13.3 - - - - SSE 6 7 3 4 1022.6 1022.0 0.0
01/02:00am 14.2 - - - - SSE 6 9 3 5 1022.8 1022.2 0.0
01/01:30am 14.1 - - - - ESE 7 7 4 4 1022.9 1022.3 0.0
01/01:00am 14.7 - - - - ESE 7 7 4 4 1023.0 1022.4 0.0
01/12:30am 15.4 - - - - ESE 4 6 2 3 1023.0 1022.4 0.0
01/12:00am 16.4 - - - - ESE 6 7 3 4 1023.0 1022.4 0.0
 
Date/Time
EST
Temp
°C
App
Temp
°C
Dew
Point
°C
Rel
Hum
%
Delta-T
°C
Wind Press
QNH
hPa
Press
MSL
hPa
Rain since
9am
mm
Dir  Spd
km/h
Gust
km/h
Spd
kts
Gust
kts
31/11:30pm 16.8 - - - - ESE 7 7 4 4 1023.0 1022.4 0.0
31/11:00pm 17.6 - - - - ESE 7 11 4 6 1023.0 1022.4 0.0
31/10:30pm 17.8 - - - - ESE 9 13 5 7 1023.1 1022.5 0.0
31/10:00pm 19.1 - - - - ESE 11 13 6 7 1023.0 1022.4 0.0
31/09:30pm 18.6 - - - - ESE 9 11 5 6 1022.9 1022.3 0.0
31/09:00pm 19.3 - - - - ESE 11 13 6 7 1022.8 1022.2 0.0
31/08:30pm 20.0 - - - - ESE 11 11 6 6 1022.6 1022.0 0.0
31/08:00pm 20.3 - - - - ESE 9 11 5 6 1022.4 1021.8 0.0
31/07:30pm 21.7 - - - - ESE 11 11 6 6 1022.2 1021.6 0.0
31/07:00pm 23.1 - - - - ESE 11 13 6 7 1022.1 1021.5 0.0

Other formats

Comma delimited format used in spreadsheet applications
http://www.bom.gov.au/fwo/IDQ60801/IDQ60801.94336.axf

JavaScript Object Notation format (JSON) in row-major order
http://www.bom.gov.au/fwo/IDQ60801/IDQ60801.94336.json

Data quality

Most of these data are generated automatically and are frequently updated. Quality checks on data are not normally performed. It is possible for incorrect values to appear. Refer to information at About Latest Weather Observations and please check the disclaimer before using these data.